Cavern City Air Terminal
KCNM : now visible

Airfield :











YOU CAN JOIN US ON...

 
LOGIN :

Register | Disclaimer

   EN    FR    IT 

 









Legend :    VFR   Marginal VFR   IFR   Intensive IFR   Very Intensive IFR
Visi :
Ceiling :
>= 8 km
>= 3000ft
5 to 8 km
1000 to 3000 ft
1500m to 5 km
500 to 1000 ft
800 to 1500m
200 to 500 ft
< 800m
< 200 ft
Symbols :   Thunderstorms  Fog  Heavy snow  Heavy precipitations  Wind > 20 kt






- Airport Elevation : 3295 ft
- IATA code : CNM


KCNM - Cavern City Air Terminal

CURRENT METAR :
  • 190853Z AUTO 32008KT 10SM CLR 02/M04 A3018 RMK AO2 SLP198 T00221044 53018

EXPIRED METARs :
  • 190753Z AUTO 33007KT 10SM CLR 02/M04 A3016 RMK AO2 SLP191 T00221039
  • 190653Z AUTO 03006KT 10SM CLR 06/M03 A3014 RMK AO2 SLP186 T00561028 402001050
  • 190553Z AUTO 05003KT 10SM CLR 07/M03 A3013 RMK AO2 SLP183 T00671028 10150 20067 51035

TAF KCNM
Valid from the 19 at 06:00 until the 20 at 06:00 UTC


190520Z 1906/2006 02008KT P6SM BKN150
FM191500 34012KT P6SM SCT070 BKN150
KZAB FIR / North America



MET'MAP, your aeronautical weather chart ! - Copyright ORBIFLY December 2007 - Disclaimer

ORBIFLY MET'MAP TEAM :

Programming & Development : Alexandra Zaïnal
Concept & original design : Baudouin d'Aumeries
Assistance for programming : Marc-Olivier Méhu
Technical & hardware support : Manuel Goepfert

Contact : metmap@orbifly.com




SOURCES & CREDITS :

   NOAA       Earth
Advisory